Time;durP1;ratioP1;P1;durP2;ratioP2;P2;SDS_P1;SDS_P2;PMS_P1;PMS_P2;Temp;Humidity;BMP_temperature;BMP_pressure;BME280_temperature;BME280_humidity;BME280_pressure;Samples;Min_cycle;Max_cycle;Signal;HPM_P1;HPM_P2
2023/09/06 00:00:45;;;;;;;4.28;3.78;;;;;;;22.51;83.75;102021.91;6167507;28;20229;-68
2023/09/06 00:04:06;;;;;;;8.02;4.05;;;;;;;22.52;83.48;102028.25;6186997;28;22664;-67
2023/09/06 00:07:27;;;;;;;10.07;4.70;;;;;;;22.52;83.33;102031.88;6186011;28;20607;-67
2023/09/06 00:10:50;;;;;;;4.70;4.20;;;;;;;22.25;83.86;102025.06;6185039;28;20230;-69
2023/09/06 00:14:12;;;;;;;4.93;3.75;;;;;;;22.16;84.64;102030.78;6180519;28;21081;-68
2023/09/06 00:17:37;;;;;;;4.63;3.70;;;;;;;22.32;84.62;102030.66;6183730;28;20229;-68
2023/09/06 00:20:58;;;;;;;3.65;3.20;;;;;;;22.26;84.00;102036.91;6188379;28;20230;-68
2023/09/06 00:24:20;;;;;;;4.55;4.10;;;;;;;22.34;83.67;102034.09;6191494;28;20244;-69
2023/09/06 00:27:43;;;;;;;4.03;3.33;;;;;;;22.28;83.76;102043.06;6186673;28;20233;-68
2023/09/06 00:31:04;;;;;;;4.25;3.85;;;;;;;22.23;83.69;102045.53;6199086;28;20233;-68
2023/09/06 00:34:24;;;;;;;4.70;4.30;;;;;;;22.21;83.99;102042.09;6168408;28;20238;-69
2023/09/06 00:37:45;;;;;;;4.65;4.25;;;;;;;22.04;84.80;102041.38;6191483;28;20256;-69
2023/09/06 00:41:06;;;;;;;4.78;4.00;;;;;;;22.05;85.23;102045.81;6192043;28;20232;-69
2023/09/06 00:44:28;;;;;;;6.20;4.13;;;;;;;22.08;85.03;102050.94;6187873;28;20627;-68
2023/09/06 00:47:50;;;;;;;3.13;2.92;;;;;;;22.17;84.54;102046.25;6189517;28;20324;-68
2023/09/06 00:51:11;;;;;;;3.90;3.50;;;;;;;21.93;84.81;102039.03;6191190;28;20233;-69
2023/09/06 00:54:32;;;;;;;3.55;3.25;;;;;;;21.54;86.04;102042.84;6190300;28;20237;-68
2023/09/06 00:57:54;;;;;;;4.07;3.45;;;;;;;21.59;87.04;102030.28;6187705;28;20236;-68
2023/09/06 01:01:17;;;;;;;4.25;3.80;;;;;;;21.73;87.11;102036.91;6189619;28;20229;-69
2023/09/06 01:04:39;;;;;;;3.22;2.97;;;;;;;21.83;86.29;102023.81;6190511;28;20248;-68
2023/09/06 01:08:04;;;;;;;3.60;3.17;;;;;;;21.97;85.99;102018.41;6178087;28;20237;-68
2023/09/06 01:11:26;;;;;;;3.45;3.15;;;;;;;21.96;85.54;102024.09;6190016;28;20275;-69
2023/09/06 01:14:47;;;;;;;3.58;3.28;;;;;;;21.83;85.61;102024.69;6200970;28;20693;-68
2023/09/06 01:18:10;;;;;;;3.20;3.00;;;;;;;21.76;85.62;102026.41;6196124;28;20312;-68
2023/09/06 01:21:37;;;;;;;3.78;3.45;;;;;;;21.69;85.87;102030.94;6195025;28;20237;-68
2023/09/06 01:25:02;;;;;;;3.10;2.83;;;;;;;21.61;85.91;102030.13;6184019;28;20238;-68
2023/09/06 01:28:27;;;;;;;4.53;3.30;;;;;;;21.29;86.56;102026.50;6188528;28;20752;-68
2023/09/06 01:31:47;;;;;;;3.45;2.92;;;;;;;20.97;88.03;102014.72;6197044;28;20252;-67
2023/09/06 01:35:10;;;;;;;3.10;2.58;;;;;;;20.95;90.32;102016.78;6210839;28;20548;-68
2023/09/06 01:38:32;;;;;;;3.95;3.25;;;;;;;21.30;89.01;102021.84;6189806;28;20703;-69
2023/09/06 01:41:55;;;;;;;3.00;2.72;;;;;;;21.37;88.19;102022.84;6192328;28;20229;-68
2023/09/06 01:45:17;;;;;;;3.50;3.20;;;;;;;21.38;87.62;102025.41;6188750;28;21921;-68
2023/09/06 01:48:39;;;;;;;3.45;3.15;;;;;;;21.42;87.18;102029.50;6183714;28;20621;-68
2023/09/06 01:52:01;;;;;;;3.10;2.80;;;;;;;21.38;87.30;102019.91;6182905;28;20229;-68
2023/09/06 01:55:22;;;;;;;3.08;2.78;;;;;;;21.34;87.08;102017.72;6185367;28;20233;-68
2023/09/06 01:58:44;;;;;;;3.33;2.75;;;;;;;21.34;87.04;102015.81;6186254;28;20229;-69
2023/09/06 02:02:05;;;;;;;3.75;3.05;;;;;;;21.32;86.77;102015.16;6184076;28;20253;-68
2023/09/06 02:05:26;;;;;;;3.28;2.97;;;;;;;21.33;86.87;102014.13;6192909;28;20240;-68
2023/09/06 02:08:47;;;;;;;3.63;2.75;;;;;;;21.31;86.73;102027.16;6191152;28;21427;-68
2023/09/06 02:12:11;;;;;;;3.40;3.10;;;;;;;21.22;86.65;102016.38;6190693;28;20237;-68
2023/09/06 02:15:33;;;;;;;3.50;3.17;;;;;;;21.15;86.69;102018.16;6191582;28;20240;-67
2023/09/06 02:18:54;;;;;;;3.97;3.38;;;;;;;21.13;86.97;102020.22;6193677;28;20229;-68
2023/09/06 02:22:18;;;;;;;2.65;2.45;;;;;;;21.02;87.30;102023.28;6193050;28;20237;-68
2023/09/06 02:25:39;;;;;;;2.63;2.40;;;;;;;20.98;87.64;102024.69;6194992;28;20323;-68
2023/09/06 02:29:00;;;;;;;4.30;2.92;;;;;;;20.99;87.62;102023.63;6189567;28;20543;-69
2023/09/06 02:32:24;;;;;;;2.60;2.40;;;;;;;20.96;87.40;102024.88;6194689;28;20561;-68
2023/09/06 02:35:45;;;;;;;3.10;2.63;;;;;;;20.84;87.62;102030.88;6194301;28;20236;-69
2023/09/06 02:39:07;;;;;;;3.08;2.78;;;;;;;20.85;87.90;102033.44;6188266;28;20241;-69
2023/09/06 02:42:27;;;;;;;3.50;2.95;;;;;;;20.89;87.96;102033.94;6186455;28;20233;-68
2023/09/06 02:45:53;;;;;;;2.78;2.58;;;;;;;20.89;87.85;102033.94;6181494;28;20509;-68
2023/09/06 02:49:17;;;;;;;2.95;2.75;;;;;;;20.87;87.88;102033.25;6179920;28;20241;-68
2023/09/06 02:52:38;;;;;;;3.20;2.88;;;;;;;20.84;87.70;102028.16;6169749;28;20234;-68
2023/09/06 02:56:01;;;;;;;3.25;2.95;;;;;;;20.87;87.83;102034.13;6176437;28;21485;-67
2023/09/06 02:59:23;;;;;;;3.30;3.00;;;;;;;20.73;87.99;102034.84;6184648;28;20560;-69
2023/09/06 03:02:43;;;;;;;3.75;2.88;;;;;;;20.65;87.97;102043.91;6173094;28;20783;-68
2023/09/06 03:06:06;;;;;;;3.15;2.28;;;;;;;20.77;88.07;102049.06;6181181;28;20229;-68
2023/09/06 03:09:28;;;;;;;4.97;4.50;;;;;;;20.77;87.34;102041.69;6197048;28;20237;-68
2023/09/06 03:12:55;;;;;;;2.78;2.58;;;;;;;20.66;87.62;102039.31;6197640;28;20591;-68
2023/09/06 03:16:18;;;;;;;3.47;3.17;;;;;;;20.58;87.79;102044.78;6175749;28;20269;-69
2023/09/06 03:19:40;;;;;;;5.80;3.42;;;;;;;20.57;87.92;102051.28;6178349;28;20687;-68
2023/09/06 03:23:17;;;;;;;8.57;7.43;;;;;;;20.52;87.99;102060.06;6190208;28;20233;-69
2023/09/06 03:26:43;;;;;;;8.10;7.40;;;;;;;20.55;87.95;102054.22;6430746;23;20263;-67
2023/09/06 03:30:07;;;;;;;8.60;7.82;;;;;;;20.54;87.91;102052.50;6103245;28;20232;-68
2023/09/06 03:33:29;;;;;;;6.50;5.28;;;;;;;20.52;87.82;102056.44;6100580;28;20227;-68
2023/09/06 03:36:55;;;;;;;4.40;3.88;;;;;;;20.38;87.98;102060.72;6096493;28;20338;-68
2023/09/06 03:40:25;;;;;;;4.10;3.80;;;;;;;20.31;88.21;102059.69;6112509;28;20240;-69
2023/09/06 03:43:46;;;;;;;2.70;2.50;;;;;;;20.34;89.19;102066.72;6104489;28;20271;-69
2023/09/06 03:47:13;;;;;;;4.32;3.65;;;;;;;20.39;89.00;102061.56;6092511;28;20709;-69
2023/09/06 03:50:34;;;;;;;3.25;3.00;;;;;;;20.41;88.77;102065.88;6096167;28;20228;-69
2023/09/06 03:53:55;;;;;;;3.42;3.03;;;;;;;20.35;88.88;102068.44;6092914;28;20555;-69
2023/09/06 03:57:17;;;;;;;4.63;3.47;;;;;;;20.40;88.70;102068.78;6089202;28;20617;-68
2023/09/06 04:00:43;;;;;;;8.00;6.68;;;;;;;20.26;88.38;102070.31;6084307;28;20637;-68
2023/09/06 04:04:13;;;;;;;7.95;7.15;;;;;;;20.13;88.71;102069.91;6083232;28;20239;-68
2023/09/06 04:07:36;;;;;;;10.55;9.55;;;;;;;20.06;89.27;102071.63;6089291;28;20240;-68
2023/09/06 04:10:57;;;;;;;9.75;8.43;;;;;;;20.16;89.42;102071.44;6093274;28;20239;-68
2023/09/06 04:14:19;;;;;;;9.32;8.23;;;;;;;20.26;88.91;102070.31;6088267;28;20318;-68
2023/09/06 04:17:41;;;;;;;5.75;5.25;;;;;;;20.19;89.13;102062.91;6090471;28;21986;-68
2023/09/06 04:21:07;;;;;;;4.95;4.35;;;;;;;20.23;89.17;102062.44;6083379;28;20240;-69
2023/09/06 04:24:29;;;;;;;4.30;3.47;;;;;;;20.00;89.79;102064.09;6092580;28;20247;-68
2023/09/06 04:27:54;;;;;;;4.35;3.45;;;;;;;20.08;90.08;102060.50;6090462;28;20778;-68
2023/09/06 04:31:17;;;;;;;10.18;9.20;;;;;;;20.18;90.11;102062.06;6106326;28;20359;-68
2023/09/06 04:34:39;;;;;;;7.80;7.00;;;;;;;20.08;89.81;102071.44;6089463;29;20274;-68
2023/09/06 04:38:02;;;;;;;5.82;5.00;;;;;;;20.18;89.55;102073.00;6092689;28;20313;-68
2023/09/06 04:41:24;;;;;;;12.00;10.80;;;;;;;20.21;89.45;102074.59;6097991;29;20709;-68
2023/09/06 04:44:49;;;;;;;16.25;14.45;;;;;;;20.14;89.13;102070.75;6092601;28;20257;-68
2023/09/06 04:48:16;;;;;;;5.65;4.90;;;;;;;20.10;89.41;102080.34;6103396;28;20772;-68
2023/09/06 04:51:38;;;;;;;4.78;4.00;;;;;;;20.02;89.38;102075.72;6098608;29;20231;-69
2023/09/06 04:54:59;;;;;;;4.03;3.55;;;;;;;20.03;89.68;102077.41;6096647;29;20236;-69
2023/09/06 04:58:20;;;;;;;3.80;3.13;;;;;;;20.06;89.34;102076.22;6091247;28;20259;-68
2023/09/06 05:01:42;;;;;;;4.63;4.20;;;;;;;20.12;89.15;102081.03;6084413;28;21659;-68
2023/09/06 05:05:05;;;;;;;5.90;3.25;;;;;;;20.09;89.10;102079.47;6089166;29;20235;-68
2023/09/06 05:08:27;;;;;;;21.05;19.15;;;;;;;20.06;88.82;102079.84;6088840;29;20236;-68
2023/09/06 05:11:47;;;;;;;8.65;7.78;;;;;;;19.98;89.01;102085.31;6105388;28;20496;-68
2023/09/06 05:15:10;;;;;;;4.47;4.18;;;;;;;20.09;89.35;102082.22;6098438;28;20904;-68
2023/09/06 05:18:30;;;;;;;3.75;3.22;;;;;;;20.12;88.46;102089.25;6087965;28;20239;-68
2023/09/06 05:21:53;;;;;;;4.55;3.55;;;;;;;20.25;88.23;102093.25;6105642;28;20802;-67
2023/09/06 05:25:17;;;;;;;3.75;3.42;;;;;;;20.30;88.11;102098.19;6094531;28;20290;-67
2023/09/06 05:28:38;;;;;;;3.88;3.53;;;;;;;20.42;87.84;102100.44;6091765;28;20239;-67
2023/09/06 05:31:59;;;;;;;5.53;3.75;;;;;;;20.53;87.50;102099.25;6093484;28;20572;-67
2023/09/06 05:35:20;;;;;;;3.80;3.50;;;;;;;20.47;87.07;102109.00;6097245;28;20750;-67
2023/09/06 05:38:43;;;;;;;4.57;4.15;;;;;;;20.62;86.67;102101.84;6100735;28;20244;-68
2023/09/06 05:42:04;;;;;;;5.80;4.22;;;;;;;20.63;86.79;102106.28;6099022;28;20232;-69
2023/09/06 05:45:26;;;;;;;3.78;3.40;;;;;;;20.68;86.72;102112.09;6097347;28;20238;-67
2023/09/06 05:48:47;;;;;;;4.95;3.80;;;;;;;20.73;86.59;102119.81;6101294;28;20240;-66
2023/09/06 05:52:09;;;;;;;16.15;14.45;;;;;;;20.76;86.40;102121.38;6103437;28;20508;-66
2023/09/06 05:55:31;;;;;;;8.93;8.20;;;;;;;20.81;86.53;102116.22;6107748;28;20232;-66
2023/09/06 05:58:52;;;;;;;4.97;4.13;;;;;;;20.99;86.02;102125.09;6117066;28;20260;-66
2023/09/06 06:02:15;;;;;;;3.05;2.85;;;;;;;20.97;85.42;102124.41;6119624;28;20600;-66
2023/09/06 06:05:35;;;;;;;5.25;3.20;;;;;;;21.01;85.38;102126.63;6098307;28;20228;-66
2023/09/06 06:08:57;;;;;;;3.42;3.13;;;;;;;21.05;85.04;102138.16;6106813;28;20255;-66
2023/09/06 06:12:22;;;;;;;3.65;3.45;;;;;;;21.20;84.60;102136.41;6102660;28;20239;-66
2023/09/06 06:15:43;;;;;;;3.10;2.80;;;;;;;20.77;85.81;102139.50;6106171;28;20304;-66
2023/09/06 06:19:04;;;;;;;8.90;8.05;;;;;;;21.15;85.34;102141.56;6099318;28;20335;-67
2023/09/06 06:22:25;;;;;;;5.40;3.60;;;;;;;21.13;84.99;102140.91;6105681;28;20615;-67
2023/09/06 06:25:46;;;;;;;3.50;3.20;;;;;;;20.91;84.99;102147.91;6094862;28;20579;-68
2023/09/06 06:29:08;;;;;;;5.10;3.28;;;;;;;21.40;84.87;102148.72;6097375;28;20270;-67
2023/09/06 06:32:29;;;;;;;4.63;3.20;;;;;;;21.70;83.79;102147.94;6084995;28;21305;-68
2023/09/06 06:35:51;;;;;;;4.03;3.67;;;;;;;21.84;82.28;102149.13;6094320;29;20247;-66
2023/09/06 06:39:12;;;;;;;4.75;3.20;;;;;;;21.82;82.13;102148.44;6091643;28;20235;-66
2023/09/06 06:42:33;;;;;;;8.57;3.63;;;;;;;21.88;81.33;102143.06;6101111;28;20235;-66
2023/09/06 06:45:58;;;;;;;6.35;3.83;;;;;;;21.94;81.69;102142.38;6098032;28;20243;-66
2023/09/06 06:49:19;;;;;;;3.30;2.70;;;;;;;21.89;81.68;102147.53;6098316;28;20267;-67
2023/09/06 06:52:44;;;;;;;4.40;3.55;;;;;;;21.87;81.35;102146.84;6107314;28;20231;-67
2023/09/06 06:56:04;;;;;;;4.05;3.13;;;;;;;21.88;81.31;102151.31;6109917;28;20530;-67
2023/09/06 06:59:27;;;;;;;3.03;2.67;;;;;;;21.99;81.11;102150.91;6109269;28;20236;-67
2023/09/06 07:02:49;;;;;;;6.30;4.00;;;;;;;21.90;80.90;102163.00;6100616;28;20255;-67
2023/09/06 07:06:11;;;;;;;3.83;2.35;;;;;;;22.08;80.69;102166.34;6109685;28;20534;-68
2023/09/06 07:09:32;;;;;;;4.47;3.83;;;;;;;21.78;80.10;102169.84;6105629;28;20468;-67
2023/09/06 07:12:53;;;;;;;3.13;2.80;;;;;;;22.08;79.14;102169.06;6108421;28;20239;-68
2023/09/06 07:16:14;;;;;;;3.53;2.63;;;;;;;22.59;78.22;102164.81;6108500;28;20239;-67
2023/09/06 07:19:36;;;;;;;4.13;3.40;;;;;;;22.49;77.92;102168.84;6103266;28;20235;-69
2023/09/06 07:22:57;;;;;;;7.75;3.05;;;;;;;22.15;78.79;102175.53;6101586;28;20259;-67
2023/09/06 07:26:19;;;;;;;3.83;3.33;;;;;;;22.13;79.39;102183.09;6101132;28;20235;-68
2023/09/06 07:29:40;;;;;;;6.95;3.22;;;;;;;22.06;79.62;102176.66;6068520;28;20236;-68
2023/09/06 07:33:01;;;;;;;9.80;3.80;;;;;;;22.45;78.69;102183.97;6094861;28;20334;-67
2023/09/06 07:36:23;;;;;;;4.13;3.33;;;;;;;22.67;77.51;102181.28;6090962;28;20232;-69
2023/09/06 07:39:44;;;;;;;2.85;2.42;;;;;;;22.83;77.93;102186.66;6085488;28;20240;-67
2023/09/06 07:43:05;;;;;;;5.70;3.08;;;;;;;23.23;76.85;102192.84;6093244;28;20248;-68
2023/09/06 07:46:29;;;;;;;4.80;3.33;;;;;;;23.61;75.04;102187.09;6091081;28;20244;-67
2023/09/06 07:49:50;;;;;;;3.63;2.30;;;;;;;23.64;74.76;102186.75;6089164;28;20244;-67
2023/09/06 07:53:13;;;;;;;3.85;2.88;;;;;;;23.70;74.28;102197.00;6098584;28;20227;-67
2023/09/06 07:56:34;;;;;;;12.50;3.63;;;;;;;23.96;74.23;102193.78;6100089;28;20240;-68
2023/09/06 07:59:55;;;;;;;3.83;3.53;;;;;;;24.19;73.41;102188.16;6098006;28;20884;-67
2023/09/06 08:03:16;;;;;;;6.20;3.60;;;;;;;24.16;72.54;102205.06;6099266;28;20239;-69
2023/09/06 08:06:37;;;;;;;5.22;2.88;;;;;;;24.22;72.46;102194.13;6095561;28;20307;-69
2023/09/06 08:10:00;;;;;;;2.90;2.63;;;;;;;23.91;72.90;102201.75;6096160;28;20259;-68
2023/09/06 08:13:21;;;;;;;4.50;2.47;;;;;;;24.19;72.78;102207.44;6091046;28;20669;-65
2023/09/06 08:16:42;;;;;;;4.70;2.50;;;;;;;24.43;72.08;102201.59;6102544;28;20625;-65
2023/09/06 08:20:04;;;;;;;4.50;3.20;;;;;;;24.32;72.00;102200.19;6103842;28;20240;-65
2023/09/06 08:23:25;;;;;;;4.72;3.08;;;;;;;24.79;71.35;102199.69;6108381;28;20240;-65
2023/09/06 08:26:48;;;;;;;4.60;2.20;;;;;;;24.81;69.84;102200.34;6106658;28;20235;-65
2023/09/06 08:30:11;;;;;;;4.45;2.30;;;;;;;24.76;69.11;102200.09;6098609;28;20260;-65
2023/09/06 08:33:32;;;;;;;2.58;2.28;;;;;;;25.01;68.39;102206.06;6102200;28;20268;-65
2023/09/06 08:36:53;;;;;;;2.28;1.83;;;;;;;25.12;67.39;102198.09;6104272;28;20621;-65
2023/09/06 08:40:15;;;;;;;4.28;2.75;;;;;;;25.44;67.65;102199.44;6116115;28;20284;-65
2023/09/06 08:43:42;;;;;;;4.35;2.70;;;;;;;25.59;67.58;102204.88;6100462;28;20456;-65
2023/09/06 08:47:05;;;;;;;3.88;1.95;;;;;;;25.66;66.54;102203.03;6110003;28;20251;-65
2023/09/06 08:50:27;;;;;;;4.18;1.80;;;;;;;25.37;65.38;102198.50;6105753;28;20248;-65
2023/09/06 08:53:48;;;;;;;3.33;2.08;;;;;;;25.51;65.39;102197.59;6103720;28;20528;-66
2023/09/06 08:57:09;;;;;;;2.20;1.95;;;;;;;25.49;65.41;102191.44;6109140;28;20704;-65
2023/09/06 09:00:31;;;;;;;1.98;1.67;;;;;;;25.70;64.88;102194.09;6107036;28;20483;-65
2023/09/06 09:03:52;;;;;;;1.95;1.83;;;;;;;25.61;63.76;102195.34;6106983;28;20507;-66
2023/09/06 09:07:14;;;;;;;3.35;1.63;;;;;;;25.74;63.59;102202.84;6104293;28;20329;-66
2023/09/06 09:10:35;;;;;;;7.10;2.17;;;;;;;26.05;63.02;102211.53;6100001;28;21450;-65
2023/09/06 09:13:56;;;;;;;2.63;1.40;;;;;;;26.04;63.15;102207.03;6109943;28;20717;-66
2023/09/06 09:17:20;;;;;;;2.55;2.03;;;;;;;26.31;62.06;102206.13;6113054;28;20236;-65
2023/09/06 09:20:43;;;;;;;3.55;2.33;;;;;;;26.42;61.05;102213.84;6110560;28;20255;-65
2023/09/06 09:24:04;;;;;;;2.42;1.88;;;;;;;26.44;60.87;102208.97;6110468;28;20252;-65
2023/09/06 09:27:27;;;;;;;1.98;1.35;;;;;;;26.48;58.91;102209.38;6112876;28;20239;-65
2023/09/06 09:30:49;;;;;;;1.67;1.58;;;;;;;26.58;59.61;102207.94;6105741;28;20232;-66
2023/09/06 09:34:12;;;;;;;1.40;1.30;;;;;;;26.63;58.33;102210.94;6106368;28;20243;-66
2023/09/06 09:37:32;;;;;;;2.72;1.75;;;;;;;26.79;56.94;102206.94;6102907;28;20240;-66
2023/09/06 09:41:06;;;;;;;3.95;1.48;;;;;;;26.71;56.37;102205.19;6105486;28;20244;-66
2023/09/06 09:44:27;;;;;;;5.30;2.10;;;;;;;26.90;56.65;102204.41;6100850;28;20265;-66
2023/09/06 09:47:48;;;;;;;1.20;1.02;;;;;;;26.99;56.77;102206.97;6094714;28;20254;-66
2023/09/06 09:51:17;;;;;;;2.22;1.90;;;;;;;27.26;55.82;102200.38;6087868;28;20235;-66
2023/09/06 09:54:41;;;;;;;2.13;1.67;;;;;;;27.53;56.18;102208.50;6098047;28;20231;-65
2023/09/06 09:58:05;;;;;;;2.88;1.38;;;;;;;27.65;54.62;102204.00;6100880;28;20235;-66
2023/09/06 10:01:27;;;;;;;1.83;1.35;;;;;;;27.64;54.01;102199.50;6101487;28;20232;-66
2023/09/06 10:04:50;;;;;;;1.95;1.58;;;;;;;27.76;53.75;102201.63;6100864;28;20724;-66
2023/09/06 10:08:13;;;;;;;2.17;1.65;;;;;;;27.96;53.39;102196.88;6086877;29;20618;-66
2023/09/06 10:11:37;;;;;;;2.40;1.52;;;;;;;28.10;53.35;102199.41;6100456;28;20232;-66
2023/09/06 10:15:00;;;;;;;2.92;1.80;;;;;;;28.44;52.99;102185.19;6099142;28;20693;-66
2023/09/06 10:18:21;;;;;;;2.05;1.00;;;;;;;28.26;51.74;102193.41;6105208;28;21398;-67
2023/09/06 10:21:44;;;;;;;1.55;1.02;;;;;;;28.58;51.64;102193.47;6098115;28;21894;-66
2023/09/06 10:25:10;;;;;;;1.73;1.63;;;;;;;28.13;51.34;102192.59;6112074;28;20343;-66
2023/09/06 10:28:33;;;;;;;4.80;1.45;;;;;;;28.56;52.02;102187.25;6107181;28;20259;-66
2023/09/06 10:31:54;;;;;;;1.52;1.42;;;;;;;28.55;51.39;102191.09;6107687;28;20237;-66
2023/09/06 10:35:23;;;;;;;2.00;1.73;;;;;;;29.15;50.21;102193.28;6109785;28;20342;-66
2023/09/06 10:39:14;;;;;;;1.33;1.23;;;;;;;29.43;49.97;102190.91;6103623;28;20638;-65
2023/09/06 10:42:36;;;;;;;2.67;0.80;;;;;;;29.09;49.62;102174.72;6100744;28;20239;-67
2023/09/06 10:45:58;;;;;;;1.67;1.27;;;;;;;29.51;49.25;102173.94;6092002;28;20669;-65
2023/09/06 10:49:22;;;;;;;6.15;2.88;;;;;;;30.08;48.74;102178.25;6100701;28;20251;-66
2023/09/06 10:52:46;;;;;;;1.80;1.05;;;;;;;30.09;46.73;102176.28;6105707;28;20232;-66
2023/09/06 10:56:08;;;;;;;1.95;0.90;;;;;;;29.71;47.52;102173.72;6104618;28;20224;-67
2023/09/06 10:59:31;;;;;;;4.03;0.98;;;;;;;29.30;47.71;102171.56;6107327;28;20280;-66
2023/09/06 11:03:17;;;;;;;4.43;1.20;;;;;;;29.95;46.94;102170.06;6106463;28;21794;-66
2023/09/06 11:06:51;;;;;;;1.00;1.00;;;;;;;30.93;46.46;102167.88;6103227;28;20236;-65
2023/09/06 11:10:12;;;;;;;2.22;1.00;;;;;;;30.93;44.97;102170.66;6091627;28;20365;-66
2023/09/06 11:13:34;;;;;;;0.98;0.82;;;;;;;31.50;44.42;102181.06;6098632;28;20646;-66
2023/09/06 11:16:57;;;;;;;1.30;1.20;;;;;;;35.03;39.81;102174.75;6104618;28;20346;-66
2023/09/06 11:20:18;;;;;;;1.48;0.93;;;;;;;36.57;35.40;102175.13;6099292;28;20239;-67
2023/09/06 11:23:47;;;;;;;1.45;1.13;;;;;;;39.52;32.59;102172.69;6102081;28;20243;-66
2023/09/06 11:27:19;;;;;;;1.00;1.00;;;;;;;38.83;32.32;102175.81;6098020;28;20227;-66
2023/09/06 11:30:41;;;;;;;1.08;1.02;;;;;;;40.18;30.92;102178.47;6102117;28;21301;-67
2023/09/06 11:34:05;;;;;;;0.95;0.95;;;;;;;40.01;31.38;102170.50;6097879;28;20231;-68
2023/09/06 11:37:26;;;;;;;3.13;1.35;;;;;;;40.70;31.61;102174.63;6098803;28;20232;-68
2023/09/06 11:40:48;;;;;;;3.20;3.00;;;;;;;41.91;30.37;102181.88;6104877;28;20244;-68
2023/09/06 11:44:10;;;;;;;1.23;1.00;;;;;;;40.62;30.61;102173.31;6079439;28;20240;-68
2023/09/06 11:47:31;;;;;;;2.05;0.88;;;;;;;41.53;30.47;102166.16;6100070;28;20310;-67
2023/09/06 11:51:08;;;;;;;1.08;0.98;;;;;;;41.48;30.24;102164.25;6087089;28;20255;-67
2023/09/06 11:54:31;;;;;;;0.60;0.60;;;;;;;41.79;28.35;102168.19;6109503;28;20239;-67
2023/09/06 11:57:52;;;;;;;1.05;0.70;;;;;;;43.64;28.19;102167.75;6102500;28;20231;-67
2023/09/06 12:01:19;;;;;;;2.28;0.73;;;;;;;44.93;27.00;102171.78;6101977;28;20321;-67
2023/09/06 12:04:51;;;;;;;1.27;1.17;;;;;;;43.85;27.32;102170.03;6100059;28;20318;-68
2023/09/06 12:08:17;;;;;;;1.75;0.70;;;;;;;44.80;27.08;102172.78;6089018;28;20499;-67
2023/09/06 12:11:39;;;;;;;1.35;0.75;;;;;;;42.07;28.48;102158.56;6094776;28;20342;-67
2023/09/06 12:15:00;;;;;;;1.98;0.93;;;;;;;43.05;28.19;102159.69;6103159;28;20235;-66
2023/09/06 12:18:21;;;;;;;0.90;0.90;;;;;;;44.85;27.87;102158.41;6101708;28;20231;-66
2023/09/06 12:21:42;;;;;;;2.58;1.05;;;;;;;43.42;27.47;102161.28;6095780;28;20227;-67
2023/09/06 12:25:06;;;;;;;1.08;0.80;;;;;;;42.22;28.74;102145.22;6107611;28;20240;-67
2023/09/06 12:28:28;;;;;;;2.33;1.10;;;;;;;42.37;28.65;102156.22;6106433;28;20329;-67
2023/09/06 12:31:49;;;;;;;1.90;0.82;;;;;;;43.06;29.11;102144.31;6107240;28;20231;-67
2023/09/06 12:35:11;;;;;;;1.13;0.90;;;;;;;44.70;26.86;102143.78;6107268;28;20357;-68
2023/09/06 12:38:33;;;;;;;2.72;1.10;;;;;;;42.16;28.06;102145.31;6093973;28;20247;-67
2023/09/06 12:41:55;;;;;;;1.48;1.10;;;;;;;42.70;29.02;102133.03;6085648;28;20250;-66
2023/09/06 12:45:24;;;;;;;1.05;0.75;;;;;;;41.80;29.40;102120.88;6112273;28;21939;-65
2023/09/06 12:48:45;;;;;;;1.58;1.00;;;;;;;40.62;30.08;102126.06;6100746;28;20238;-67
2023/09/06 12:52:06;;;;;;;1.20;1.10;;;;;;;43.14;28.39;102129.34;6091698;28;20334;-65
2023/09/06 12:55:27;;;;;;;0.95;0.80;;;;;;;40.90;29.56;102112.91;6115562;28;20259;-65
2023/09/06 12:58:49;;;;;;;2.15;1.95;;;;;;;42.95;29.04;102123.03;6101759;28;20611;-66
2023/09/06 13:02:10;;;;;;;6.85;6.18;;;;;;;44.32;27.90;102115.13;6095493;28;20602;-66
2023/09/06 13:05:31;;;;;;;1.90;1.02;;;;;;;42.24;28.59;102112.53;6108225;28;20752;-67
2023/09/06 13:08:52;;;;;;;5.90;5.30;;;;;;;43.54;28.73;102110.38;6106694;28;20258;-67
2023/09/06 13:12:12;;;;;;;3.72;3.42;;;;;;;44.42;27.77;102115.66;6088798;28;20771;-67
2023/09/06 13:15:35;;;;;;;1.58;1.40;;;;;;;43.77;28.30;102114.00;6112369;28;20287;-67
2023/09/06 13:18:57;;;;;;;2.95;2.72;;;;;;;43.46;28.17;102112.00;6108873;28;20274;-67
2023/09/06 13:22:18;;;;;;;1.67;1.58;;;;;;;41.01;30.24;102108.75;6086517;28;21559;-66
2023/09/06 13:25:39;;;;;;;6.63;6.03;;;;;;;42.65;29.04;102106.75;6103070;28;20242;-67
2023/09/06 13:29:00;;;;;;;1.40;1.30;;;;;;;42.88;28.62;102108.44;6101847;28;20236;-67
2023/09/06 13:32:24;;;;;;;1.85;1.58;;;;;;;43.51;28.99;102105.31;6087966;28;20235;-66
2023/09/06 13:35:45;;;;;;;2.58;2.17;;;;;;;43.08;29.47;102109.94;6110227;28;20236;-66
2023/09/06 13:39:07;;;;;;;4.80;4.25;;;;;;;43.42;29.17;102099.59;6095269;28;20250;-66
2023/09/06 13:42:28;;;;;;;1.52;1.42;;;;;;;43.24;29.28;102105.53;6086778;28;21342;-67
2023/09/06 13:45:49;;;;;;;1.08;1.02;;;;;;;44.60;28.52;102104.28;6077593;28;21056;-66
2023/09/06 13:49:11;;;;;;;2.83;2.20;;;;;;;44.41;28.62;102093.22;6098840;28;20242;-67
2023/09/06 13:52:32;;;;;;;6.95;5.82;;;;;;;44.46;27.93;102092.22;6079305;28;20594;-67
2023/09/06 13:55:53;;;;;;;8.40;7.57;;;;;;;45.21;27.77;102088.81;6103820;28;20231;-67
2023/09/06 13:59:14;;;;;;;3.97;3.58;;;;;;;44.97;27.96;102083.63;6104485;28;20498;-66
2023/09/06 14:02:35;;;;;;;1.25;1.10;;;;;;;40.83;30.84;102084.16;6091176;28;20591;-67
2023/09/06 14:05:58;;;;;;;4.65;4.25;;;;;;;41.69;31.34;102072.06;6104769;28;20235;-67
2023/09/06 14:09:19;;;;;;;5.18;4.68;;;;;;;42.96;30.25;102081.28;6113619;28;20560;-66
2023/09/06 14:12:39;;;;;;;6.00;3.45;;;;;;;42.49;29.29;102074.25;6102483;28;20227;-66
2023/09/06 14:16:02;;;;;;;2.88;2.00;;;;;;;41.78;29.86;102084.34;6117071;28;20236;-65
2023/09/06 14:19:24;;;;;;;1.98;1.55;;;;;;;40.88;32.04;102069.09;6116860;28;20622;-67
2023/09/06 14:22:46;;;;;;;2.22;2.00;;;;;;;41.26;30.35;102070.66;6107631;28;20236;-65
2023/09/06 14:26:08;;;;;;;4.15;2.63;;;;;;;41.48;30.02;102069.91;6114228;28;20244;-66
2023/09/06 14:29:28;;;;;;;1.70;1.17;;;;;;;39.89;32.59;102071.13;6102412;28;20710;-65
2023/09/06 14:32:49;;;;;;;3.47;3.25;;;;;;;39.04;33.34;102064.44;6098613;28;20655;-66
2023/09/06 14:36:10;;;;;;;3.13;2.42;;;;;;;38.52;34.12;102065.19;6107704;28;20950;-66
2023/09/06 14:39:33;;;;;;;5.05;4.68;;;;;;;38.89;34.21;102053.31;6086336;28;20471;-65
2023/09/06 14:42:54;;;;;;;1.30;1.20;;;;;;;37.79;34.76;102055.75;6104413;28;20514;-66
2023/09/06 14:46:16;;;;;;;2.28;0.90;;;;;;;37.86;33.95;102059.09;6104656;28;20270;-66
2023/09/06 14:49:38;;;;;;;1.90;1.60;;;;;;;37.12;35.29;102052.53;6096928;28;20582;-66
2023/09/06 14:53:00;;;;;;;2.25;2.05;;;;;;;36.67;36.59;102062.69;6092791;28;21392;-65
2023/09/06 14:56:22;;;;;;;4.90;4.22;;;;;;;36.39;36.31;102053.91;6108305;28;20702;-65
2023/09/06 14:59:43;;;;;;;2.08;1.70;;;;;;;36.30;37.38;102059.25;6109768;28;20574;-65
2023/09/06 15:03:04;;;;;;;2.00;1.70;;;;;;;36.11;36.59;102063.72;6100730;28;20227;-64
2023/09/06 15:06:25;;;;;;;1.90;1.35;;;;;;;36.00;36.59;102050.78;6098449;28;20240;-65
2023/09/06 15:09:46;;;;;;;1.17;1.08;;;;;;;35.04;36.93;102055.00;6102220;28;20236;-65
2023/09/06 15:13:11;;;;;;;5.72;5.22;;;;;;;35.54;37.52;102060.94;6097695;28;20323;-65
2023/09/06 15:16:32;;;;;;;5.68;5.07;;;;;;;35.50;36.69;102058.97;6098166;28;20232;-65
2023/09/06 15:19:53;;;;;;;10.38;9.50;;;;;;;35.98;37.00;102055.81;6088870;28;20236;-66
2023/09/06 15:23:15;;;;;;;4.78;4.38;;;;;;;36.21;37.38;102049.69;6092942;28;20551;-65
2023/09/06 15:26:37;;;;;;;9.30;8.40;;;;;;;36.19;36.30;102053.91;6102639;28;20360;-66
2023/09/06 15:29:59;;;;;;;2.20;2.00;;;;;;;36.22;36.44;102056.16;6081463;28;20354;-66
2023/09/06 15:33:20;;;;;;;3.05;2.75;;;;;;;36.03;36.07;102050.19;6098840;28;20235;-65
2023/09/06 15:36:41;;;;;;;1.90;1.80;;;;;;;35.95;36.43;102053.56;6100521;28;20673;-65
2023/09/06 15:40:01;;;;;;;7.75;6.93;;;;;;;35.95;36.15;102056.34;6099968;28;20777;-65